Time;durP1;ratioP1;P1;durP2;ratioP2;P2;SDS_P1;SDS_P2;PMS_P1;PMS_P2;Temp;Humidity;BMP_temperature;BMP_pressure;BME280_temperature;BME280_humidity;BME280_pressure;Samples;Min_cycle;Max_cycle;Signal;HPM_P1;HPM_P2
2024/01/16 00:00:29;;;;;;;2.10;1.63;;;;;;;1.43;90.73;99431.44;5088789;28;20200;-80
2024/01/16 00:02:55;;;;;;;4.53;1.70;;;;;;;1.55;90.50;99432.34;5088572;28;20197;-79
2024/01/16 00:05:21;;;;;;;2.57;1.90;;;;;;;1.62;90.75;99429.75;5077778;28;20707;-80
2024/01/16 00:07:49;;;;;;;2.87;1.83;;;;;;;1.54;90.42;99438.31;5064117;28;20205;-80
2024/01/16 00:10:15;;;;;;;4.00;1.77;;;;;;;1.56;90.17;99441.75;5073294;28;20209;-80
2024/01/16 00:12:42;;;;;;;2.63;2.00;;;;;;;1.49;90.26;99455.47;5072745;28;20254;-79
2024/01/16 00:15:09;;;;;;;2.63;1.90;;;;;;;1.57;90.52;99448.63;5073296;28;20201;-79
2024/01/16 00:17:35;;;;;;;3.47;1.77;;;;;;;1.61;90.23;99449.50;5072761;28;20235;-79
2024/01/16 00:20:01;;;;;;;2.27;1.80;;;;;;;1.35;89.79;99454.59;5066209;28;20197;-80
2024/01/16 00:22:28;;;;;;;3.30;1.90;;;;;;;1.67;90.40;99440.94;5066440;28;20740;-80
2024/01/16 00:24:55;;;;;;;2.30;1.83;;;;;;;1.67;89.45;99471.78;5075652;28;20286;-80
2024/01/16 00:27:22;;;;;;;2.20;1.50;;;;;;;1.33;89.04;99508.56;5073579;28;20251;-80
2024/01/16 00:29:49;;;;;;;2.20;1.83;;;;;;;1.21;89.38;99505.97;5073275;28;20213;-80
2024/01/16 00:32:16;;;;;;;1.87;1.00;;;;;;;1.37;88.51;99496.59;5075135;28;20202;-80
2024/01/16 00:34:43;;;;;;;2.63;1.10;;;;;;;1.35;88.65;99508.59;5074055;28;20262;-79
2024/01/16 00:37:09;;;;;;;1.93;1.00;;;;;;;1.36;88.15;99526.56;5074449;28;20229;-80
2024/01/16 00:39:36;;;;;;;2.17;1.00;;;;;;;1.45;88.77;99523.19;5073882;28;20212;-80
2024/01/16 00:42:05;;;;;;;1.03;0.93;;;;;;;1.45;88.46;99523.19;5076813;28;20196;-80
2024/01/16 00:44:32;;;;;;;0.80;0.80;;;;;;;1.47;88.31;99530.91;5078588;28;20232;-80
2024/01/16 00:47:01;;;;;;;1.80;1.20;;;;;;;1.19;89.81;99538.50;5066029;28;20351;-80
2024/01/16 00:49:27;;;;;;;3.07;1.07;;;;;;;1.32;89.81;99516.28;5066190;28;20217;-80
2024/01/16 00:51:54;;;;;;;1.33;0.97;;;;;;;1.32;88.68;99529.97;5068095;28;20218;-80
2024/01/16 00:54:20;;;;;;;1.10;1.00;;;;;;;1.44;88.42;99546.31;5078301;28;20671;-80
2024/01/16 00:56:47;;;;;;;1.57;0.90;;;;;;;1.31;88.13;99563.38;5077195;28;20286;-80
2024/01/16 00:59:15;;;;;;;1.43;0.90;;;;;;;1.43;86.84;99568.59;5083864;28;20228;-80
2024/01/16 01:01:41;;;;;;;1.17;0.97;;;;;;;1.50;86.51;99590.91;5068590;28;20209;-80
2024/01/16 01:04:07;;;;;;;1.50;1.17;;;;;;;1.42;85.50;99608.00;5076122;28;20622;-80
2024/01/16 01:06:36;;;;;;;3.77;1.47;;;;;;;1.34;86.11;99615.69;5076513;28;20298;-80
2024/01/16 01:09:02;;;;;;;1.77;1.33;;;;;;;1.39;85.86;99632.00;5076968;28;20201;-80
2024/01/16 01:11:29;;;;;;;1.93;0.97;;;;;;;1.51;85.24;99644.06;5078113;28;20215;-80
2024/01/16 01:13:55;;;;;;;1.90;1.00;;;;;;;1.27;84.31;99675.66;5076534;28;20208;-79
2024/01/16 01:16:23;;;;;;;2.50;1.30;;;;;;;1.48;84.86;99672.31;5076488;28;20274;-80
2024/01/16 01:18:49;;;;;;;2.77;1.70;;;;;;;1.52;84.69;99694.63;5075802;28;20228;-80
2024/01/16 01:21:16;;;;;;;2.93;1.43;;;;;;;1.47;84.92;99687.78;5070421;28;20254;-80
2024/01/16 01:23:43;;;;;;;1.20;1.10;;;;;;;1.33;85.46;99688.53;5073596;28;20675;-80
2024/01/16 01:26:09;;;;;;;2.37;1.50;;;;;;;1.50;85.24;99683.47;5080582;28;20232;-80
2024/01/16 01:28:35;;;;;;;2.67;1.30;;;;;;;1.54;84.84;99689.50;5084772;28;20204;-80
2024/01/16 01:31:02;;;;;;;3.17;1.57;;;;;;;1.31;85.88;99697.94;5079091;28;20250;-80
2024/01/16 01:33:30;;;;;;;1.97;1.13;;;;;;;1.23;86.30;99680.75;5076039;28;20266;-79
2024/01/16 01:35:56;;;;;;;4.23;1.30;;;;;;;1.17;87.23;99666.16;5076347;28;20270;-80
2024/01/16 01:38:23;;;;;;;2.30;0.97;;;;;;;1.38;87.67;99639.69;5076816;28;20278;-80
2024/01/16 01:40:49;;;;;;;3.83;1.20;;;;;;;1.44;87.36;99646.59;5076731;28;20201;-79
2024/01/16 01:43:20;;;;;;;2.50;1.20;;;;;;;1.49;87.36;99637.19;5076866;28;20209;-80
2024/01/16 01:45:56;;;;;;;2.17;1.10;;;;;;;1.40;86.22;99643.13;5076497;28;20232;-81
2024/01/16 01:48:23;;;;;;;3.03;1.20;;;;;;;1.33;87.87;99639.69;5076408;28;20205;-80
2024/01/16 01:50:51;;;;;;;5.10;1.17;;;;;;;1.25;87.66;99637.91;5063894;28;20228;-80
2024/01/16 01:53:18;;;;;;;4.40;1.30;;;;;;;1.36;87.51;99629.41;5063647;28;20205;-80
2024/01/16 01:55:45;;;;;;;2.40;1.37;;;;;;;1.44;86.82;99646.59;5065803;28;20224;-79
2024/01/16 01:58:11;;;;;;;2.67;1.50;;;;;;;1.40;87.75;99638.00;5063073;28;20226;-79
2024/01/16 02:00:38;;;;;;;2.70;1.53;;;;;;;1.27;87.77;99643.91;5051812;28;20205;-80
2024/01/16 02:03:05;;;;;;;3.90;1.43;;;;;;;1.41;88.33;99616.59;5075202;28;20270;-80
2024/01/16 02:05:32;;;;;;;4.17;1.60;;;;;;;1.36;87.28;99628.56;5073360;28;20208;-79
2024/01/16 02:08:01;;;;;;;3.33;1.13;;;;;;;1.25;86.92;99636.22;5057776;28;20198;-80
2024/01/16 02:10:27;;;;;;;4.03;1.43;;;;;;;1.33;87.19;99647.41;5076039;28;20201;-80
2024/01/16 02:12:53;;;;;;;2.83;1.23;;;;;;;1.56;87.60;99641.50;5075128;28;20278;-80
2024/01/16 02:15:20;;;;;;;2.67;2.00;;;;;;;1.65;86.21;99659.56;5061601;28;20258;-80
2024/01/16 02:17:48;;;;;;;3.13;1.33;;;;;;;1.31;85.57;99695.38;5075146;28;20228;-80
2024/01/16 02:20:14;;;;;;;1.57;1.03;;;;;;;1.39;85.67;99692.88;5075809;28;20201;-80
2024/01/16 02:22:44;;;;;;;3.30;1.30;;;;;;;1.32;84.74;99722.78;5076593;28;20201;-80
2024/01/16 02:25:12;;;;;;;6.53;1.20;;;;;;;1.25;84.94;99720.16;5060155;28;20201;-80
2024/01/16 02:27:38;;;;;;;3.10;1.30;;;;;;;1.04;85.88;99724.31;5077326;28;20220;-79
2024/01/16 02:30:07;;;;;;;3.23;1.30;;;;;;;1.16;85.45;99708.13;5079733;28;20208;-78
2024/01/16 02:32:33;;;;;;;4.70;1.20;;;;;;;1.31;85.26;99710.81;5078880;28;20208;-80
2024/01/16 02:34:59;;;;;;;1.17;1.00;;;;;;;1.20;85.02;99725.28;5078112;28;20228;-80
2024/01/16 02:37:26;;;;;;;3.03;1.60;;;;;;;1.30;85.39;99729.63;5061395;28;20704;-80
2024/01/16 02:39:52;;;;;;;2.10;1.20;;;;;;;1.23;84.77;99740.75;5076463;28;20220;-80
2024/01/16 02:42:20;;;;;;;2.67;1.43;;;;;;;1.32;85.27;99752.78;5079718;28;20553;-80
2024/01/16 02:44:46;;;;;;;4.33;1.70;;;;;;;1.12;85.03;99752.66;5078820;28;20236;-80
2024/01/16 02:47:13;;;;;;;3.00;1.40;;;;;;;1.12;84.51;99755.22;5078403;28;20224;-80
2024/01/16 02:49:39;;;;;;;2.23;1.20;;;;;;;1.21;83.89;99764.69;5078313;28;20203;-80
2024/01/16 02:52:06;;;;;;;2.03;0.97;;;;;;;1.22;83.93;99795.56;5078089;28;20219;-79
2024/01/16 02:54:32;;;;;;;2.80;1.27;;;;;;;1.38;83.22;99794.81;5072026;28;20204;-80
2024/01/16 02:56:59;;;;;;;3.63;1.00;;;;;;;0.96;84.17;99819.31;5072988;28;20744;-80
2024/01/16 02:59:28;;;;;;;2.47;1.30;;;;;;;1.12;83.81;99804.03;5075944;28;20221;-80
2024/01/16 03:01:55;;;;;;;3.87;1.40;;;;;;;1.09;84.33;99814.28;5076011;28;20205;-81
2024/01/16 03:04:21;;;;;;;3.50;1.40;;;;;;;1.31;83.90;99808.50;5076618;28;20427;-80
2024/01/16 03:06:47;;;;;;;4.43;1.30;;;;;;;1.04;83.68;99833.97;5070899;28;20220;-80
2024/01/16 03:09:14;;;;;;;3.57;1.60;;;;;;;0.95;84.02;99833.03;5076395;28;20219;-79
2024/01/16 03:11:40;;;;;;;1.20;0.90;;;;;;;0.84;84.17;99818.34;5075270;28;20211;-80
2024/01/16 03:14:06;;;;;;;3.43;1.17;;;;;;;1.12;84.42;99798.91;5075325;28;20231;-80
2024/01/16 03:16:34;;;;;;;2.47;0.93;;;;;;;1.08;83.58;99816.00;5076885;28;20278;-80
2024/01/16 03:19:00;;;;;;;2.83;0.90;;;;;;;0.94;83.85;99825.28;5072789;28;20275;-80
2024/01/16 03:21:27;;;;;;;3.53;1.27;;;;;;;1.08;83.39;99830.56;5076399;28;20254;-80
2024/01/16 03:23:54;;;;;;;3.30;1.30;;;;;;;0.84;83.95;99846.59;5076081;28;20211;-80
2024/01/16 03:26:21;;;;;;;1.53;1.10;;;;;;;0.87;83.89;99837.19;5075353;28;20224;-80
2024/01/16 03:28:47;;;;;;;3.90;1.20;;;;;;;0.91;83.76;99822.69;5066521;28;20672;-80
2024/01/16 03:31:14;;;;;;;3.40;1.33;;;;;;;0.89;84.61;99820.13;5067111;28;20212;-81
2024/01/16 03:33:43;;;;;;;3.13;1.20;;;;;;;0.88;85.07;99820.09;5062259;28;20700;-77
2024/01/16 03:36:10;;;;;;;4.83;1.50;;;;;;;1.00;84.57;99820.22;5053620;28;20286;-80
2024/01/16 03:38:37;;;;;;;3.27;1.30;;;;;;;0.84;84.00;99819.19;5055063;28;20624;-80
2024/01/16 03:41:06;;;;;;;3.43;1.27;;;;;;;1.02;84.37;99809.94;5055869;28;20242;-81
2024/01/16 03:43:33;;;;;;;7.63;1.60;;;;;;;0.86;84.00;99826.94;5055373;28;20660;-81
2024/01/16 03:45:59;;;;;;;4.57;1.30;;;;;;;0.98;83.81;99842.47;5055539;28;20621;-81
2024/01/16 03:48:25;;;;;;;5.50;1.73;;;;;;;1.31;83.21;99838.47;5054137;28;20294;-79
2024/01/16 03:50:54;;;;;;;4.03;1.37;;;;;;;1.47;82.15;99860.91;5054373;28;20212;-79
2024/01/16 03:53:20;;;;;;;4.50;1.70;;;;;;;1.19;84.04;99865.81;5048575;28;20277;-79
2024/01/16 03:55:47;;;;;;;6.37;2.60;;;;;;;1.18;84.21;99856.34;5053654;28;20225;-79
2024/01/16 03:58:14;;;;;;;4.90;2.33;;;;;;;0.83;85.77;99853.41;5053456;28;20680;-81
2024/01/16 04:00:40;;;;;;;2.53;2.07;;;;;;;1.05;85.37;99831.41;5056068;28;20683;-81
2024/01/16 04:03:07;;;;;;;4.20;1.87;;;;;;;1.16;84.37;99823.78;5054023;28;20587;-78
2024/01/16 04:05:34;;;;;;;3.37;2.07;;;;;;;0.90;84.50;99855.22;5052672;28;20643;-80
2024/01/16 04:08:02;;;;;;;3.37;1.93;;;;;;;0.98;85.13;99827.91;5054060;28;20660;-81
2024/01/16 04:10:28;;;;;;;2.83;2.00;;;;;;;1.06;85.51;99817.69;5053374;28;20580;-78
2024/01/16 04:12:54;;;;;;;5.03;2.17;;;;;;;1.11;85.54;99817.72;5052526;28;20664;-78
2024/01/16 04:15:21;;;;;;;6.97;2.77;;;;;;;1.14;85.24;99815.19;5053554;28;20749;-80
2024/01/16 04:17:48;;;;;;;2.50;1.90;;;;;;;0.90;85.33;99821.81;5057106;28;20197;-81
2024/01/16 04:20:14;;;;;;;5.73;2.00;;;;;;;1.08;84.54;99817.72;5058024;28;20218;-80
2024/01/16 04:22:40;;;;;;;3.80;2.23;;;;;;;0.90;84.65;99834.66;5059573;28;20284;-80
2024/01/16 04:25:09;;;;;;;5.63;1.73;;;;;;;0.90;85.04;99826.97;5058667;28;20625;-80
2024/01/16 04:27:35;;;;;;;7.07;2.33;;;;;;;0.95;85.63;99812.47;5058614;28;20715;-81
2024/01/16 04:30:02;;;;;;;4.37;1.77;;;;;;;0.45;86.62;99817.03;5058018;28;20201;-80
2024/01/16 04:32:28;;;;;;;4.57;2.10;;;;;;;0.53;86.62;99784.59;5058767;28;20251;-80
2024/01/16 04:34:53;;;;;;;4.77;1.87;;;;;;;0.62;86.85;99789.84;5057963;28;20210;-80
2024/01/16 04:37:20;;;;;;;6.37;1.97;;;;;;;0.63;86.58;99783.84;5059016;28;20299;-80
2024/01/16 04:39:46;;;;;;;3.77;1.93;;;;;;;0.89;85.93;99786.72;5058077;28;20303;-80
2024/01/16 04:42:14;;;;;;;4.47;1.43;;;;;;;0.65;85.19;99810.41;5058041;28;21042;-80
2024/01/16 04:44:40;;;;;;;5.10;2.10;;;;;;;0.57;85.73;99812.03;5059392;28;20197;-80
2024/01/16 04:47:07;;;;;;;7.77;2.40;;;;;;;0.71;85.69;99792.50;5059105;28;20232;-81
2024/01/16 04:49:33;;;;;;;2.67;1.67;;;;;;;0.62;86.31;99791.56;5058164;28;20198;-81
2024/01/16 04:51:59;;;;;;;3.77;2.37;;;;;;;0.62;86.78;99791.56;5058955;28;20236;-80
2024/01/16 04:54:26;;;;;;;2.23;1.73;;;;;;;0.36;86.20;99799.84;5058528;28;20216;-79
2024/01/16 04:56:52;;;;;;;4.73;2.20;;;;;;;0.55;86.55;99788.06;5058386;28;20248;-80
2024/01/16 04:59:20;;;;;;;5.33;2.70;;;;;;;0.59;86.43;99784.66;5058457;28;20700;-80
2024/01/16 05:01:46;;;;;;;4.03;2.17;;;;;;;0.81;85.63;99782.34;5059510;28;20201;-81
2024/01/16 05:04:13;;;;;;;9.63;2.53;;;;;;;0.48;85.46;99814.53;5059065;28;20205;-80
2024/01/16 05:06:39;;;;;;;4.83;2.30;;;;;;;0.70;85.55;99820.75;5058579;28;20225;-81
2024/01/16 05:09:06;;;;;;;6.13;1.87;;;;;;;0.75;84.32;99814.84;5058964;28;20667;-81
2024/01/16 05:11:32;;;;;;;5.07;1.90;;;;;;;0.91;84.63;99831.28;5060035;28;20236;-81
2024/01/16 05:13:59;;;;;;;5.73;2.87;;;;;;;1.08;84.16;99839.13;5058774;28;20209;-81
2024/01/16 05:16:26;;;;;;;6.87;2.00;;;;;;;0.85;84.27;99858.59;5058154;28;20225;-79
2024/01/16 05:18:53;;;;;;;4.47;2.20;;;;;;;0.94;84.08;99862.13;5056562;28;20299;-78
2024/01/16 05:21:20;;;;;;;2.23;1.80;;;;;;;0.71;84.10;99871.28;5054012;28;20563;-77
2024/01/16 05:23:46;;;;;;;2.63;2.43;;;;;;;0.67;84.07;99869.50;5055120;28;20213;-78
2024/01/16 05:26:12;;;;;;;4.73;2.07;;;;;;;0.67;84.56;99872.09;5055670;28;20221;-76
2024/01/16 05:28:40;;;;;;;6.53;3.60;;;;;;;0.75;84.53;99866.22;5055060;28;20201;-78
2024/01/16 05:31:07;;;;;;;5.90;2.70;;;;;;;0.94;83.82;99862.13;5054989;28;20212;-78
2024/01/16 05:33:34;;;;;;;4.80;3.30;;;;;;;0.55;84.03;99877.94;5050262;28;20251;-77
2024/01/16 05:36:02;;;;;;;7.80;2.77;;;;;;;0.94;85.23;99862.13;5055694;28;20267;-80
2024/01/16 05:38:28;;;;;;;4.40;2.50;;;;;;;0.84;84.66;99854.31;5058547;28;20226;-81
2024/01/16 05:40:54;;;;;;;5.90;2.60;;;;;;;0.63;85.23;99849.78;5057697;28;20202;-81
2024/01/16 05:43:21;;;;;;;5.23;3.13;;;;;;;0.50;85.88;99847.06;5055191;28;20267;-79
2024/01/16 05:45:47;;;;;;;4.60;2.10;;;;;;;0.69;86.09;99825.00;5078829;28;20277;-81
2024/01/16 05:48:14;;;;;;;6.83;3.10;;;;;;;0.67;86.68;99826.69;5076638;28;20739;-78
2024/01/16 05:50:42;;;;;;;10.07;2.77;;;;;;;0.65;87.03;99804.44;5068510;28;20255;-79
2024/01/16 05:53:08;;;;;;;9.70;3.10;;;;;;;1.02;86.35;99797.09;5066249;28;20208;-79
2024/01/16 05:55:36;;;;;;;3.77;2.03;;;;;;;1.01;85.22;99816.78;5077192;28;20201;-79
2024/01/16 05:58:03;;;;;;;5.93;2.50;;;;;;;0.98;85.20;99832.19;5077279;28;20241;-79
2024/01/16 06:00:30;;;;;;;5.73;2.03;;;;;;;1.23;84.69;99843.56;5076244;28;20224;-79
2024/01/16 06:02:56;;;;;;;4.93;2.60;;;;;;;0.85;83.65;99880.00;5069168;28;20210;-76
2024/01/16 06:05:22;;;;;;;5.07;2.60;;;;;;;1.11;84.33;99861.41;5065369;28;20656;-78
2024/01/16 06:07:50;;;;;;;5.70;2.47;;;;;;;1.19;84.07;99863.25;5061012;28;20255;-78
2024/01/16 06:10:16;;;;;;;3.90;2.10;;;;;;;1.17;83.89;99875.22;5074623;28;20205;-79
2024/01/16 06:12:43;;;;;;;6.57;2.50;;;;;;;1.30;83.14;99878.75;5075883;28;20209;-79
2024/01/16 06:15:11;;;;;;;4.30;2.03;;;;;;;1.28;82.46;99897.59;5075140;28;20209;-78
2024/01/16 06:17:37;;;;;;;5.43;2.10;;;;;;;1.07;83.46;99903.34;5060279;28;20248;-79
2024/01/16 06:20:06;;;;;;;5.40;2.27;;;;;;;0.90;84.25;99890.34;5070952;28;20294;-78
2024/01/16 06:22:32;;;;;;;5.37;2.47;;;;;;;0.79;84.72;99888.50;5074437;28;20234;-80
2024/01/16 06:25:01;;;;;;;4.90;2.43;;;;;;;0.70;85.58;99864.44;5075406;28;20226;-80
2024/01/16 06:27:28;;;;;;;6.77;2.83;;;;;;;0.83;84.51;99852.56;5060778;28;20223;-81
2024/01/16 06:29:54;;;;;;;4.57;2.87;;;;;;;0.66;85.56;99842.13;5077236;28;20631;-79
2024/01/16 06:32:20;;;;;;;6.00;3.20;;;;;;;0.62;86.74;99823.25;5076376;28;20205;-79
2024/01/16 06:34:47;;;;;;;5.20;2.60;;;;;;;0.65;85.75;99828.41;5077312;28;20267;-79
2024/01/16 06:37:13;;;;;;;3.90;2.80;;;;;;;0.77;85.52;99825.97;5066449;28;20224;-79
2024/01/16 06:39:39;;;;;;;5.07;2.87;;;;;;;0.83;85.09;99829.44;5076977;28;20583;-79
2024/01/16 06:42:07;;;;;;;4.53;2.73;;;;;;;0.79;85.71;99826.88;5077334;28;20736;-79
2024/01/16 06:44:34;;;;;;;3.43;2.77;;;;;;;0.86;85.13;99829.50;5078481;28;20224;-79
2024/01/16 06:47:00;;;;;;;4.70;2.70;;;;;;;0.92;85.12;99850.09;5076412;28;20235;-79
2024/01/16 06:49:27;;;;;;;5.03;2.60;;;;;;;0.78;85.39;99850.81;5073897;28;20205;-79
2024/01/16 06:51:54;;;;;;;5.77;3.07;;;;;;;0.83;84.79;99848.28;5057984;28;20216;-80
2024/01/16 06:54:21;;;;;;;4.83;3.03;;;;;;;1.04;84.71;99842.53;5069469;28;20656;-80
2024/01/16 06:56:48;;;;;;;4.33;3.60;;;;;;;1.24;84.04;99854.72;5078352;28;20231;-80
2024/01/16 06:59:19;;;;;;;5.40;3.53;;;;;;;1.27;84.40;99871.03;5077863;28;20296;-79
2024/01/16 07:01:45;;;;;;;8.20;3.47;;;;;;;1.16;84.63;99868.34;5078302;28;20204;-79
2024/01/16 07:04:14;;;;;;;5.13;3.40;;;;;;;1.29;84.61;99866.75;5077267;28;20551;-79
2024/01/16 07:06:40;;;;;;;7.40;4.13;;;;;;;1.31;85.37;99853.91;5077643;28;20220;-80
2024/01/16 07:09:10;;;;;;;9.53;3.73;;;;;;;1.27;84.78;99867.56;5077437;28;20266;-79
2024/01/16 07:11:37;;;;;;;6.87;4.40;;;;;;;1.32;85.11;99865.91;5077689;28;20535;-79
2024/01/16 07:14:04;;;;;;;10.70;4.47;;;;;;;1.48;84.35;99867.78;5077660;28;20193;-79
2024/01/16 07:16:31;;;;;;;6.33;4.33;;;;;;;1.53;83.95;99880.69;5077486;28;20220;-80
2024/01/16 07:18:58;;;;;;;6.40;3.33;;;;;;;1.45;83.20;99908.03;5077740;28;20202;-80
2024/01/16 07:21:25;;;;;;;7.23;4.17;;;;;;;1.65;83.56;99898.78;5067443;28;20267;-80
2024/01/16 07:23:51;;;;;;;5.67;4.10;;;;;;;1.79;82.44;99919.50;5078172;28;20205;-80
2024/01/16 07:26:18;;;;;;;6.53;4.80;;;;;;;1.56;82.74;99947.56;5081484;28;20710;-77
2024/01/16 07:28:44;;;;;;;5.37;3.93;;;;;;;1.68;82.10;99946.81;5083451;28;20254;-77
2024/01/16 07:31:11;;;;;;;6.10;4.40;;;;;;;1.68;82.11;99957.97;5084765;28;20201;-77
2024/01/16 07:33:39;;;;;;;6.37;4.53;;;;;;;1.39;81.63;99965.44;5083447;28;20209;-77
2024/01/16 07:36:06;;;;;;;4.93;4.07;;;;;;;1.64;82.58;99958.78;5085733;28;20642;-79
2024/01/16 07:38:33;;;;;;;8.63;3.63;;;;;;;1.48;82.25;99965.50;5072564;28;20205;-79
2024/01/16 07:41:00;;;;;;;4.90;4.33;;;;;;;1.61;82.35;99963.06;5071146;28;20694;-79
2024/01/16 07:43:26;;;;;;;4.93;4.37;;;;;;;1.66;81.65;99974.25;5060873;28;20263;-80
2024/01/16 07:45:53;;;;;;;4.60;3.80;;;;;;;1.82;82.05;99977.81;5078210;28;20219;-80
2024/01/16 07:48:19;;;;;;;6.90;4.13;;;;;;;1.39;82.37;99978.28;5076395;28;20695;-80
2024/01/16 07:50:47;;;;;;;6.43;4.13;;;;;;;1.48;82.97;99956.94;5075143;28;20715;-80
2024/01/16 07:53:13;;;;;;;5.63;4.10;;;;;;;1.46;83.11;99958.63;5063944;28;20205;-80
2024/01/16 07:55:39;;;;;;;6.90;4.10;;;;;;;1.53;82.86;99956.13;5066433;28;20890;-80
2024/01/16 07:58:06;;;;;;;5.70;4.03;;;;;;;1.17;83.97;99965.19;5071778;28;20742;-80
2024/01/16 08:00:32;;;;;;;5.37;4.13;;;;;;;1.44;84.00;99947.47;5076361;28;20231;-82
2024/01/16 08:02:59;;;;;;;6.37;3.97;;;;;;;1.47;83.33;99953.50;5075632;28;20720;-81
2024/01/16 08:05:27;;;;;;;5.73;3.27;;;;;;;1.51;83.86;99947.53;5075962;28;20725;-80
2024/01/16 08:07:55;;;;;;;7.57;4.23;;;;;;;1.64;83.43;99945.94;5076371;28;20201;-81
2024/01/16 08:10:21;;;;;;;5.93;3.80;;;;;;;1.72;82.68;99954.56;5074875;28;20207;-80
2024/01/16 08:12:47;;;;;;;6.87;3.40;;;;;;;1.67;82.40;99965.69;5076988;28;20205;-80
2024/01/16 08:15:14;;;;;;;8.83;4.37;;;;;;;1.81;82.64;99970.97;5074169;28;20209;-81
2024/01/16 08:17:41;;;;;;;5.57;3.53;;;;;;;1.69;81.75;99987.16;5076746;28;20221;-79
2024/01/16 08:20:09;;;;;;;7.80;3.90;;;;;;;1.56;82.19;99983.59;5070108;28;20283;-80
2024/01/16 08:22:36;;;;;;;8.83;3.80;;;;;;;1.47;82.92;99983.50;5052089;28;20200;-80
2024/01/16 08:25:05;;;;;;;4.90;2.90;;;;;;;1.67;82.88;99973.41;5074727;28;20284;-81
2024/01/16 08:27:32;;;;;;;4.27;3.27;;;;;;;1.50;82.96;99978.38;5077120;28;20264;-81
2024/01/16 08:29:59;;;;;;;6.67;3.43;;;;;;;1.36;83.32;99960.22;5077477;28;20202;-80
2024/01/16 08:32:25;;;;;;;6.87;3.33;;;;;;;1.34;83.48;99957.63;5077282;28;20266;-79
2024/01/16 08:34:52;;;;;;;7.37;3.80;;;;;;;1.45;83.59;99944.91;5074332;28;20204;-80
2024/01/16 08:37:18;;;;;;;5.93;3.33;;;;;;;1.32;82.85;99972.19;5078136;28;20593;-80
2024/01/16 08:39:44;;;;;;;4.60;3.20;;;;;;;1.42;84.17;99954.28;5076665;28;20211;-80
2024/01/16 08:42:12;;;;;;;4.63;3.00;;;;;;;1.09;83.57;99961.66;5078503;28;20205;-78
2024/01/16 08:44:39;;;;;;;8.60;5.17;;;;;;;1.25;83.97;99943.81;5062181;28;20761;-79
2024/01/16 08:47:06;;;;;;;9.77;6.20;;;;;;;1.33;83.68;99944.78;5078940;28;20232;-80
2024/01/16 08:49:32;;;;;;;6.00;4.33;;;;;;;1.36;83.50;99937.09;5067681;28;20205;-80
2024/01/16 08:51:58;;;;;;;7.80;4.30;;;;;;;1.62;83.59;99923.63;5073552;28;20855;-81
2024/01/16 08:54:25;;;;;;;6.87;3.67;;;;;;;1.49;82.36;99959.53;5077768;28;20266;-80
2024/01/16 08:56:52;;;;;;;5.10;3.57;;;;;;;1.57;84.14;99939.03;5077802;28;20270;-80
2024/01/16 08:59:19;;;;;;;4.97;3.70;;;;;;;1.33;83.40;99935.38;5077530;28;20255;-80
2024/01/16 09:01:46;;;;;;;5.10;4.33;;;;;;;1.54;84.71;99921.84;5077010;28;20220;-80
2024/01/16 09:04:12;;;;;;;5.53;3.70;;;;;;;1.63;85.14;99909.94;5077952;28;20258;-80
2024/01/16 09:06:38;;;;;;;6.40;4.00;;;;;;;1.75;83.87;99907.47;5081235;28;20231;-79
2024/01/16 09:09:05;;;;;;;6.67;4.40;;;;;;;1.97;85.94;99881.03;5077404;28;20637;-80
2024/01/16 09:11:31;;;;;;;8.67;4.47;;;;;;;1.94;83.45;99901.59;5077243;28;20744;-79
2024/01/16 09:13:58;;;;;;;7.50;4.97;;;;;;;1.61;83.09;99945.91;5077976;28;20304;-80
2024/01/16 09:16:25;;;;;;;10.23;5.10;;;;;;;1.55;82.93;99953.59;5078218;28;20225;-80
2024/01/16 09:18:52;;;;;;;7.07;4.30;;;;;;;1.92;83.79;99935.88;5064441;28;20206;-80
2024/01/16 09:21:18;;;;;;;8.60;4.40;;;;;;;2.02;84.57;99935.09;5070945;28;20233;-80
2024/01/16 09:23:45;;;;;;;5.83;4.13;;;;;;;1.64;82.63;99963.94;5077584;28;20946;-79
2024/01/16 09:26:11;;;;;;;5.97;4.20;;;;;;;1.83;83.07;99962.41;5075228;28;20266;-79
2024/01/16 09:28:38;;;;;;;6.23;4.10;;;;;;;1.96;83.57;99956.53;5077262;28;20209;-78
2024/01/16 09:31:06;;;;;;;8.40;4.43;;;;;;;1.70;81.38;99986.28;5079036;28;20197;-80
2024/01/16 09:33:34;;;;;;;5.37;4.07;;;;;;;1.60;81.66;99993.06;5078364;28;20209;-80
2024/01/16 09:36:01;;;;;;;6.77;5.50;;;;;;;1.76;81.98;99996.63;5079127;28;20270;-79
2024/01/16 09:38:27;;;;;;;9.17;8.23;;;;;;;1.47;81.08;100015.22;5080102;28;20212;-80
2024/01/16 09:40:56;;;;;;;6.53;4.13;;;;;;;1.89;81.74;100001.06;5078787;28;20233;-80
2024/01/16 09:43:24;;;;;;;6.73;5.03;;;;;;;1.61;82.34;100025.66;5079468;28;20205;-78
2024/01/16 09:45:52;;;;;;;7.50;5.27;;;;;;;1.79;81.92;100007.84;5079646;28;20244;-79
2024/01/16 09:48:19;;;;;;;6.80;4.90;;;;;;;1.79;81.72;100012.13;5077506;28;20213;-79
2024/01/16 09:50:47;;;;;;;9.33;5.07;;;;;;;1.61;81.47;100019.66;5074451;28;20197;-79
2024/01/16 09:53:14;;;;;;;7.57;5.23;;;;;;;1.84;81.97;100007.00;5076673;28;20262;-78
2024/01/16 09:55:40;;;;;;;7.93;5.00;;;;;;;1.73;81.55;100022.34;5079776;28;20226;-79
2024/01/16 09:58:12;;;;;;;8.40;4.70;;;;;;;1.80;82.29;100008.69;5079512;28;20279;-79
2024/01/16 10:00:40;;;;;;;6.63;4.90;;;;;;;2.02;81.75;99996.88;5080959;28;20536;-79
2024/01/16 10:03:07;;;;;;;7.43;5.47;;;;;;;1.93;82.06;100018.25;5078656;28;20205;-78
2024/01/16 10:05:34;;;;;;;6.17;5.13;;;;;;;2.15;81.80;100019.31;5076823;28;20209;-78
2024/01/16 10:08:01;;;;;;;8.60;6.03;;;;;;;1.77;81.78;100018.97;5076817;28;20215;-78
2024/01/16 10:10:28;;;;;;;6.70;5.23;;;;;;;1.91;81.79;100009.66;5077999;28;20276;-79
2024/01/16 10:12:56;;;;;;;6.20;4.90;;;;;;;2.14;81.96;100011.56;5077993;28;20663;-79
2024/01/16 10:15:23;;;;;;;7.87;5.60;;;;;;;2.06;81.56;100013.22;5075835;28;20632;-78
2024/01/16 10:17:49;;;;;;;9.03;5.97;;;;;;;2.10;82.06;100009.81;5076873;28;20227;-78
2024/01/16 10:20:17;;;;;;;5.93;5.33;;;;;;;2.18;81.25;100008.16;5063330;28;20255;-78
2024/01/16 10:22:53;;;;;;;5.67;5.07;;;;;;;2.10;81.23;100017.53;5075478;28;20205;-79
2024/01/16 10:25:22;;;;;;;9.27;6.80;;;;;;;2.10;82.00;100014.97;5076811;28;20204;-78
2024/01/16 10:27:49;;;;;;;6.63;4.97;;;;;;;2.04;81.86;100018.34;5061643;28;20230;-78
2024/01/16 10:30:15;;;;;;;6.47;4.83;;;;;;;2.33;80.87;100005.72;5076123;28;20213;-78
2024/01/16 10:32:43;;;;;;;5.90;5.30;;;;;;;2.25;80.86;100032.28;5075619;28;20233;-78
2024/01/16 10:35:12;;;;;;;6.03;4.07;;;;;;;2.27;80.99;100034.00;5075033;28;20667;-78
2024/01/16 10:37:43;;;;;;;5.93;4.57;;;;;;;2.33;81.26;100036.63;5075883;28;20226;-78
2024/01/16 10:40:09;;;;;;;7.43;4.80;;;;;;;2.52;80.84;100044.50;5074301;28;20292;-78
2024/01/16 10:42:37;;;;;;;6.17;5.57;;;;;;;2.47;79.75;100048.75;5074569;28;20227;-78
2024/01/16 10:45:04;;;;;;;7.87;4.80;;;;;;;2.66;79.57;100054.91;5074320;28;20209;-78
2024/01/16 10:47:34;;;;;;;8.00;5.20;;;;;;;2.56;79.28;100077.16;5074510;28;20272;-78
2024/01/16 10:50:01;;;;;;;5.80;4.90;;;;;;;2.69;78.81;100091.84;5060413;28;20635;-78
2024/01/16 10:52:28;;;;;;;5.13;3.80;;;;;;;2.58;79.16;100093.50;5071698;28;20767;-78
2024/01/16 10:55:00;;;;;;;7.00;3.97;;;;;;;2.37;79.28;100113.06;5074193;28;20193;-78
2024/01/16 10:57:28;;;;;;;4.30;3.90;;;;;;;2.45;79.89;100113.13;5074221;28;20312;-78
2024/01/16 11:00:04;;;;;;;4.93;3.70;;;;;;;2.34;79.84;100102.75;5073804;28;20204;-79
2024/01/16 11:02:39;;;;;;;6.73;3.67;;;;;;;2.64;79.16;100109.00;5073539;28;20652;-78
2024/01/16 11:05:06;;;;;;;8.43;4.03;;;;;;;2.76;78.62;100121.13;5072456;28;20206;-78
2024/01/16 11:07:34;;;;;;;6.60;3.57;;;;;;;2.62;77.39;100143.31;5073366;28;20618;-79
2024/01/16 11:10:02;;;;;;;3.70;3.33;;;;;;;2.75;77.80;100146.00;5073385;28;20261;-79
2024/01/16 11:12:30;;;;;;;5.27;3.87;;;;;;;2.74;77.43;100167.50;5073825;28;20201;-79
2024/01/16 11:15:01;;;;;;;6.23;3.83;;;;;;;2.54;77.46;100169.91;5073847;28;20209;-78
2024/01/16 11:17:30;;;;;;;4.40;3.03;;;;;;;2.60;77.64;100174.25;5073291;28;20244;-78
2024/01/16 11:19:58;;;;;;;7.40;3.87;;;;;;;2.65;77.72;100172.56;5071257;28;20258;-78
2024/01/16 11:22:25;;;;;;;4.03;3.47;;;;;;;2.83;77.65;100168.41;5070136;28;20278;-78
2024/01/16 11:25:10;;;;;;;4.57;3.50;;;;;;;2.51;76.93;100187.03;5056037;28;20201;-78
2024/01/16 11:27:36;;;;;;;4.33;3.20;;;;;;;2.65;76.67;100185.44;5071993;28;20673;-78
2024/01/16 11:30:04;;;;;;;3.90;3.10;;;;;;;2.58;77.40;100186.25;5072817;28;20201;-79
2024/01/16 11:32:36;;;;;;;4.07;2.97;;;;;;;2.74;77.53;100184.69;5073018;28;20251;-78
2024/01/16 11:35:02;;;;;;;3.50;3.20;;;;;;;2.81;77.01;100188.16;5072875;28;20212;-79
2024/01/16 11:37:32;;;;;;;5.33;3.53;;;;;;;2.62;76.26;100198.31;5072736;28;20224;-79
2024/01/16 11:40:25;;;;;;;4.93;3.13;;;;;;;2.57;77.37;100194.81;5073583;28;20333;-78